createdAt,value
2019-01-26T00:02:04.405Z,28.87
2019-01-26T00:07:12.261Z,34.24
2019-01-26T00:12:19.962Z,41.81
2019-01-26T00:17:27.577Z,30.93
2019-01-26T00:22:35.277Z,53.26
2019-01-26T00:27:43.181Z,34.47
2019-01-26T00:32:50.894Z,50.86
2019-01-26T00:37:58.522Z,65.39
2019-01-26T00:43:07.133Z,56.94
2019-01-26T00:48:14.885Z,78.80
2019-01-26T00:53:22.625Z,55.97
2019-01-26T00:58:30.595Z,92.42
2019-01-26T01:03:38.512Z,55.38
2019-01-26T01:08:46.177Z,52.44
2019-01-26T01:13:53.846Z,56.22
2019-01-26T01:19:01.547Z,54.85
2019-01-26T01:24:09.673Z,57.37
2019-01-26T01:29:17.429Z,51.91
2019-01-26T01:34:25.105Z,48.42
2019-01-26T01:39:32.924Z,59.11
2019-01-26T01:44:40.509Z,64.56
2019-01-26T01:49:48.261Z,99.11
2019-01-26T01:54:56.050Z,72.85
2019-01-26T02:00:03.719Z,133.42
2019-01-26T02:05:11.401Z,51.87
2019-01-26T02:10:19.068Z,59.62
2019-01-26T02:15:26.853Z,38.81
2019-01-26T02:20:34.506Z,52.07
2019-01-26T02:25:42.385Z,57.20
2019-01-26T02:30:50.377Z,58.91
2019-01-26T02:35:58.029Z,48.29
2019-01-26T02:41:05.701Z,47.52
2019-01-26T02:46:13.526Z,63.33
2019-01-26T02:51:21.345Z,64.47
2019-01-26T02:56:29.185Z,79.91
2019-01-26T03:01:36.846Z,48.30
2019-01-26T03:06:44.577Z,58.47
2019-01-26T03:11:52.481Z,47.48
2019-01-26T03:17:05.908Z,53.52
2019-01-26T03:22:07.597Z,69.11
2019-01-26T03:27:15.443Z,52.27
2019-01-26T03:32:23.240Z,44.52
2019-01-26T03:37:31.106Z,64.98
2019-01-26T03:42:38.878Z,55.75
2019-01-26T03:47:46.709Z,51.33
2019-01-26T03:52:54.565Z,72.83
2019-01-26T03:58:02.424Z,64.67
2019-01-26T04:03:10.142Z,53.85
2019-01-26T04:08:17.982Z,64.96
2019-01-26T04:13:25.589Z,75.20
2019-01-26T04:18:33.478Z,37.12
2019-01-26T04:23:41.142Z,27.94
2019-01-26T04:28:48.962Z,42.25
2019-01-26T04:33:56.610Z,30.96
2019-01-26T04:39:04.242Z,31.92
2019-01-26T04:44:11.988Z,30.47
2019-01-26T04:49:19.674Z,37.13
2019-01-26T04:54:27.374Z,26.31
2019-01-26T04:59:35.308Z,13.54
2019-01-26T05:04:43.010Z,16.58
2019-01-26T05:09:50.926Z,17.58
2019-01-26T05:14:58.623Z,16.65
2019-01-26T05:20:06.513Z,25.61
2019-01-26T05:25:14.352Z,19.97
2019-01-26T05:30:22.330Z,17.15
2019-01-26T05:35:30.838Z,11.46
2019-01-26T05:40:38.691Z,15.06
2019-01-26T05:45:46.251Z,10.76
2019-01-26T05:50:54.078Z,14.55
2019-01-26T05:56:01.689Z,15.57
2019-01-26T06:01:09.501Z,15.74
2019-01-26T06:06:17.290Z,13.36
2019-01-26T06:11:25.850Z,13.59
2019-01-26T06:16:46.886Z,20.87
2019-01-26T06:21:34.934Z,18.06
2019-01-26T06:26:42.527Z,16.89
2019-01-26T06:31:50.429Z,17.13
2019-01-26T06:36:58.173Z,16.02
2019-01-26T06:42:06.458Z,18.92
2019-01-26T06:47:14.097Z,17.91
2019-01-26T06:52:21.884Z,15.00
2019-01-26T06:57:29.554Z,18.79
2019-01-26T07:02:37.331Z,19.58
2019-01-26T07:07:45.168Z,32.35
2019-01-26T07:12:53.077Z,23.09
2019-01-26T07:18:00.731Z,25.49
2019-01-26T07:23:08.457Z,33.09
2019-01-26T07:28:16.209Z,32.41
2019-01-26T07:33:23.853Z,36.20
2019-01-26T07:38:31.551Z,37.15
2019-01-26T07:43:39.311Z,32.90
2019-01-26T07:48:46.950Z,34.73
2019-01-26T07:53:55.817Z,32.09
2019-01-26T07:59:03.430Z,31.97
2019-01-26T08:04:11.192Z,26.79
2019-01-26T08:09:19.057Z,26.95
2019-01-26T08:14:26.930Z,31.23
2019-01-26T08:19:34.846Z,29.60
2019-01-26T08:24:44.603Z,35.94
2019-01-26T08:29:50.357Z,38.69
2019-01-26T08:34:58.301Z,32.68
2019-01-26T08:40:06.100Z,66.25
2019-01-26T08:45:13.782Z,39.99
2019-01-26T08:50:21.392Z,45.13
2019-01-26T08:55:29.150Z,41.75
2019-01-26T09:00:36.986Z,49.87
2019-01-26T09:05:45.373Z,42.05
2019-01-26T09:10:53.048Z,47.12
2019-01-26T09:16:00.992Z,43.37
2019-01-26T09:21:08.642Z,44.51
2019-01-26T09:26:16.326Z,36.36
2019-01-26T09:31:24.103Z,39.83
2019-01-26T09:36:32.012Z,38.32
2019-01-26T09:41:39.689Z,31.71
2019-01-26T09:46:47.646Z,37.08
2019-01-26T09:51:55.373Z,34.49
2019-01-26T09:57:03.102Z,37.71
2019-01-26T10:02:10.723Z,34.75
2019-01-26T10:07:18.420Z,28.77
2019-01-26T10:12:26.209Z,30.97
2019-01-26T10:17:33.970Z,31.36
2019-01-26T10:22:41.653Z,32.41
2019-01-26T10:27:49.584Z,30.57
2019-01-26T10:32:57.193Z,27.61
2019-01-26T10:38:05.032Z,27.41
2019-01-26T10:43:13.109Z,21.88
2019-01-26T10:48:20.850Z,26.89
2019-01-26T10:53:28.525Z,26.65
2019-01-26T10:58:36.277Z,22.85
2019-01-26T11:03:44.233Z,28.27
2019-01-26T11:08:52.008Z,22.65
2019-01-26T11:13:59.673Z,24.69
2019-01-26T11:19:07.936Z,25.81
2019-01-26T11:24:14.609Z,27.17
2019-01-26T11:29:22.202Z,28.19
2019-01-26T11:34:29.886Z,22.82
2019-01-26T11:39:37.873Z,17.68
2019-01-26T11:44:45.745Z,18.11
2019-01-26T11:49:53.657Z,13.12
2019-01-26T11:55:01.407Z,13.61
2019-01-26T12:00:09.054Z,12.66
2019-01-26T12:05:16.865Z,12.04
2019-01-26T12:10:24.712Z,10.28
2019-01-26T12:15:32.415Z,10.30
2019-01-26T12:20:40.182Z,11.53
2019-01-26T12:25:47.843Z,10.51
2019-01-26T12:30:55.557Z,8.61
2019-01-26T12:36:03.302Z,9.16
2019-01-26T12:41:11.001Z,8.94
2019-01-26T12:46:18.737Z,8.23
2019-01-26T12:51:26.546Z,8.38
2019-01-26T12:56:34.247Z,7.34
2019-01-26T13:01:42.758Z,6.31
2019-01-26T13:06:51.162Z,7.32
2019-01-26T13:11:58.847Z,6.59
2019-01-26T13:17:22.897Z,6.52
2019-01-26T13:22:13.438Z,7.44
2019-01-26T13:27:11.347Z,5.94
2019-01-26T13:32:18.947Z,4.97
2019-01-26T13:37:26.847Z,5.10
2019-01-26T13:42:34.526Z,5.53
2019-01-26T13:47:42.190Z,7.83
2019-01-26T13:52:49.966Z,7.59
2019-01-26T13:57:57.754Z,6.58
2019-01-26T14:03:05.419Z,7.08
2019-01-26T14:08:13.833Z,9.83
2019-01-26T14:13:21.529Z,8.76
2019-01-26T14:18:29.261Z,13.03
2019-01-26T14:23:36.938Z,14.19
2019-01-26T14:28:44.682Z,14.44
2019-01-26T14:33:53.165Z,12.59
2019-01-26T14:39:01.655Z,14.04
2019-01-26T14:44:09.221Z,14.02
2019-01-26T14:49:16.993Z,12.97
2019-01-26T14:54:24.818Z,15.13
2019-01-26T14:59:32.527Z,14.30
2019-01-26T15:04:40.232Z,14.55
2019-01-26T15:09:47.995Z,13.62
2019-01-26T15:14:55.791Z,15.36
2019-01-26T15:20:06.084Z,17.42
2019-01-26T15:25:12.058Z,18.40
2019-01-26T15:30:19.894Z,17.06
2019-01-26T15:35:27.915Z,22.08
2019-01-26T15:40:35.750Z,22.89
2019-01-26T15:45:44.460Z,24.19
2019-01-26T15:50:52.243Z,25.59
2019-01-26T15:56:01.050Z,25.25
2019-01-26T16:01:09.295Z,24.49
2019-01-26T16:06:17.032Z,27.69
2019-01-26T16:11:24.713Z,23.99
2019-01-26T16:16:33.700Z,25.24
2019-01-26T16:21:41.726Z,24.82
2019-01-26T16:26:49.617Z,25.48
2019-01-26T16:31:57.233Z,29.52
2019-01-26T16:37:05.208Z,25.64
2019-01-26T16:42:14.281Z,25.70
2019-01-26T16:47:23.025Z,21.13
2019-01-26T16:52:30.641Z,21.76
2019-01-26T16:57:38.333Z,21.49
2019-01-26T17:02:46.029Z,24.31
2019-01-26T17:07:53.884Z,21.21
2019-01-26T17:13:01.745Z,22.80
2019-01-26T17:18:13.684Z,23.60
2019-01-26T17:23:16.910Z,23.04
2019-01-26T17:28:24.861Z,25.97
2019-01-26T17:33:32.510Z,26.00
2019-01-26T17:38:42.565Z,26.45
2019-01-26T17:43:41.448Z,28.86
2019-01-26T17:48:49.681Z,25.45
2019-01-26T17:53:57.441Z,25.49
2019-01-26T17:59:07.581Z,26.10
2019-01-26T18:04:05.248Z,25.70
2019-01-26T18:09:12.977Z,20.89
2019-01-26T18:14:20.680Z,22.72
2019-01-26T18:19:28.530Z,24.06
2019-01-26T18:24:36.203Z,22.39
2019-01-26T18:29:44.305Z,22.49
2019-01-26T18:34:52.045Z,21.83
2019-01-26T18:39:59.721Z,18.74
2019-01-26T18:45:08.489Z,18.40
2019-01-26T18:50:16.137Z,17.03
2019-01-26T18:55:23.877Z,18.25
2019-01-26T19:00:32.993Z,14.22
2019-01-26T19:05:40.650Z,14.96
2019-01-26T19:10:48.366Z,16.04
2019-01-26T19:15:56.425Z,15.62
2019-01-26T19:21:04.229Z,17.56
2019-01-26T19:26:11.858Z,16.24
2019-01-26T19:31:19.733Z,16.70
2019-01-26T19:36:27.805Z,19.52
2019-01-26T19:41:35.979Z,18.18
2019-01-26T19:46:43.835Z,18.13
2019-01-26T19:51:52.179Z,19.10
2019-01-26T19:57:00.052Z,19.34
2019-01-26T20:02:07.833Z,19.82
2019-01-26T20:07:15.478Z,20.05
2019-01-26T20:12:23.515Z,18.91
2019-01-26T20:17:33.370Z,19.31
2019-01-26T20:22:41.562Z,21.37
2019-01-26T20:27:49.375Z,23.63
2019-01-26T20:32:57.182Z,21.76
2019-01-26T20:38:05.168Z,22.59
2019-01-26T20:43:13.508Z,24.77
2019-01-26T20:48:21.267Z,25.34
2019-01-26T20:53:29.017Z,24.21
2019-01-26T20:58:36.997Z,24.48
2019-01-26T21:03:44.737Z,26.24
2019-01-26T21:08:52.557Z,25.66
2019-01-26T21:14:00.385Z,26.00
2019-01-26T21:19:08.244Z,26.04
2019-01-26T21:24:15.909Z,25.55
2019-01-26T21:29:23.597Z,25.67
2019-01-26T21:34:31.432Z,24.62
2019-01-26T21:39:39.090Z,25.63
2019-01-26T21:44:46.956Z,24.39
2019-01-26T21:49:54.931Z,23.92
2019-01-26T21:55:03.496Z,24.04
2019-01-26T22:00:11.514Z,28.32
2019-01-26T22:05:19.532Z,27.02
2019-01-26T22:10:27.903Z,30.44
2019-01-26T22:15:37.030Z,28.95
2019-01-26T22:20:46.435Z,29.56
2019-01-26T22:25:54.457Z,26.43
2019-01-26T22:31:02.802Z,29.42
2019-01-26T22:36:11.274Z,26.30
2019-01-26T22:41:19.051Z,26.75
2019-01-26T22:46:26.872Z,24.10
2019-01-26T22:51:35.879Z,22.12
2019-01-26T22:56:43.761Z,21.58
2019-01-26T23:01:51.983Z,20.77
2019-01-26T23:07:01.227Z,20.27
2019-01-26T23:12:09.040Z,19.09
2019-01-26T23:17:16.976Z,16.96
2019-01-26T23:22:25.986Z,19.76
2019-01-26T23:27:33.951Z,17.36
2019-01-26T23:32:42.002Z,17.50
2019-01-26T23:37:49.873Z,17.56
2019-01-26T23:42:58.013Z,16.12
2019-01-26T23:48:06.167Z,15.57
2019-01-26T23:53:16.870Z,15.18
2019-01-26T23:58:15.824Z,15.64
